sensor_id;sensor_type;location;lat;lon;timestamp;pressure;altitude;pressure_sealevel;temperature;humidity
39105;BME280;46464;51.154;13.812;2023-03-18T00:00:09;52293.63;;;-146.96;42.08
39105;BME280;46464;51.154;13.812;2023-03-18T00:02:38;52273.28;;;-146.96;41.98
39105;BME280;46464;51.154;13.812;2023-03-18T00:05:07;52330.25;;;-146.96;42.27
39105;BME280;46464;51.154;13.812;2023-03-18T00:07:34;52281.44;;;-146.96;42.22
39105;BME280;46464;51.154;13.812;2023-03-18T00:10:05;52309.91;;;-146.96;41.97
39105;BME280;46464;51.154;13.812;2023-03-18T00:12:32;52324.16;;;-146.96;42.25
39105;BME280;46464;51.154;13.812;2023-03-18T00:14:59;52287.53;;;-146.96;42.21
39105;BME280;46464;51.154;13.812;2023-03-18T00:17:26;52340.44;;;-146.96;42.41
39105;BME280;46464;51.154;13.812;2023-03-18T00:19:53;52326.19;;;-146.96;42.43
39105;BME280;46464;51.154;13.812;2023-03-18T00:22:20;52307.88;;;-146.96;42.61
39105;BME280;46464;51.154;13.812;2023-03-18T00:24:47;52297.72;;;-146.96;42.75
39105;BME280;46464;51.154;13.812;2023-03-18T00:27:14;52311.94;;;-146.96;42.54
39105;BME280;46464;51.154;13.812;2023-03-18T00:29:40;52318.06;;;-146.96;42.52
39105;BME280;46464;51.154;13.812;2023-03-18T00:32:07;52305.84;;;-146.96;42.52
39105;BME280;46464;51.154;13.812;2023-03-18T00:34:34;52275.31;;;-146.96;42.74
39105;BME280;46464;51.154;13.812;2023-03-18T00:37:00;52271.25;;;-146.96;42.82
39105;BME280;46464;51.154;13.812;2023-03-18T00:39:27;52305.84;;;-146.96;42.69
39105;BME280;46464;51.154;13.812;2023-03-18T00:41:56;52293.63;;;-146.96;42.72
39105;BME280;46464;51.154;13.812;2023-03-18T00:44:23;52287.53;;;-146.96;42.45
39105;BME280;46464;51.154;13.812;2023-03-18T00:46:52;52309.91;;;-146.96;42.32
39105;BME280;46464;51.154;13.812;2023-03-18T00:49:19;52305.84;;;-146.96;42.81
39105;BME280;46464;51.154;13.812;2023-03-18T00:51:45;52328.22;;;-146.96;42.95
39105;BME280;46464;51.154;13.812;2023-03-18T00:54:13;52330.25;;;-146.96;42.98
39105;BME280;46464;51.154;13.812;2023-03-18T00:56:43;52299.75;;;-146.96;43.18
39105;BME280;46464;51.154;13.812;2023-03-18T00:59:10;52330.25;;;-146.96;43.07
39105;BME280;46464;51.154;13.812;2023-03-18T01:01:37;52322.13;;;-146.96;43.04
39105;BME280;46464;51.154;13.812;2023-03-18T01:04:04;52297.72;;;-146.96;43.01
39105;BME280;46464;51.154;13.812;2023-03-18T01:06:31;52299.75;;;-146.96;42.81
39105;BME280;46464;51.154;13.812;2023-03-18T01:08:59;52269.22;;;-146.96;42.95
39105;BME280;46464;51.154;13.812;2023-03-18T01:11:27;52318.06;;;-146.96;43.01
39105;BME280;46464;51.154;13.812;2023-03-18T01:13:54;52283.47;;;-146.96;42.83
39105;BME280;46464;51.154;13.812;2023-03-18T01:16:22;52346.53;;;-146.96;42.67
39105;BME280;46464;51.154;13.812;2023-03-18T01:18:48;52356.72;;;-146.96;42.82
39105;BME280;46464;51.154;13.812;2023-03-18T01:21:15;52311.94;;;-146.96;43.29
39105;BME280;46464;51.154;13.812;2023-03-18T01:23:43;52293.63;;;-146.96;42.87
39105;BME280;46464;51.154;13.812;2023-03-18T01:26:10;52348.56;;;-146.96;42.55
39105;BME280;46464;51.154;13.812;2023-03-18T01:28:36;52318.06;;;-146.96;42.46
39105;BME280;46464;51.154;13.812;2023-03-18T01:31:03;52324.16;;;-146.96;42.89
39105;BME280;46464;51.154;13.812;2023-03-18T01:33:30;52328.22;;;-146.96;42.77
39105;BME280;46464;51.154;13.812;2023-03-18T01:35:59;52348.56;;;-146.96;42.81
39105;BME280;46464;51.154;13.812;2023-03-18T01:38:27;52320.09;;;-146.96;42.99
39105;BME280;46464;51.154;13.812;2023-03-18T01:40:57;52277.34;;;-146.96;42.83
39105;BME280;46464;51.154;13.812;2023-03-18T01:43:30;52301.78;;;-146.96;43.13
39105;BME280;46464;51.154;13.812;2023-03-18T01:45:59;52340.44;;;-146.96;43.13
39105;BME280;46464;51.154;13.812;2023-03-18T01:48:29;52311.94;;;-146.96;43.08
39105;BME280;46464;51.154;13.812;2023-03-18T01:51:01;52330.25;;;-146.96;42.91
39105;BME280;46464;51.154;13.812;2023-03-18T01:53:34;52309.91;;;-146.96;42.90
39105;BME280;46464;51.154;13.812;2023-03-18T01:56:02;52332.28;;;-146.96;42.83
39105;BME280;46464;51.154;13.812;2023-03-18T01:58:39;52307.88;;;-146.96;43.07
39105;BME280;46464;51.154;13.812;2023-03-18T02:01:23;52318.06;;;-146.96;42.88
39105;BME280;46464;51.154;13.812;2023-03-18T02:03:52;52313.97;;;-146.96;42.74
39105;BME280;46464;51.154;13.812;2023-03-18T02:06:19;52324.16;;;-146.96;43.27
39105;BME280;46464;51.154;13.812;2023-03-18T02:08:46;52318.06;;;-146.96;43.05
39105;BME280;46464;51.154;13.812;2023-03-18T02:11:13;52320.09;;;-146.96;42.91
39105;BME280;46464;51.154;13.812;2023-03-18T02:13:41;52322.13;;;-146.96;43.09
39105;BME280;46464;51.154;13.812;2023-03-18T02:18:49;52289.56;;;-146.96;43.21
39105;BME280;46464;51.154;13.812;2023-03-18T02:21:50;52364.84;;;-146.96;43.13
39105;BME280;46464;51.154;13.812;2023-03-18T02:27:28;52301.78;;;-146.96;43.11
39105;BME280;46464;51.154;13.812;2023-03-18T02:29:59;52332.28;;;-146.96;43.13
39105;BME280;46464;51.154;13.812;2023-03-18T02:32:28;52381.13;;;-146.96;43.13
39105;BME280;46464;51.154;13.812;2023-03-18T02:34:58;52271.25;;;-146.96;43.24
39105;BME280;46464;51.154;13.812;2023-03-18T02:37:26;52293.63;;;-146.96;43.15
39105;BME280;46464;51.154;13.812;2023-03-18T02:39:52;52303.81;;;-146.96;43.41
39105;BME280;46464;51.154;13.812;2023-03-18T02:42:30;52318.06;;;-146.96;43.24
39105;BME280;46464;51.154;13.812;2023-03-18T02:44:57;52303.81;;;-146.96;43.15
39105;BME280;46464;51.154;13.812;2023-03-18T02:47:25;52336.38;;;-146.96;43.53
39105;BME280;46464;51.154;13.812;2023-03-18T02:49:54;52350.59;;;-146.96;43.81
39105;BME280;46464;51.154;13.812;2023-03-18T02:52:20;52328.22;;;-146.96;43.94
39105;BME280;46464;51.154;13.812;2023-03-18T02:54:47;52297.72;;;-146.96;43.78
39105;BME280;46464;51.154;13.812;2023-03-18T02:57:13;52340.44;;;-146.96;43.89
39105;BME280;46464;51.154;13.812;2023-03-18T02:59:40;52313.97;;;-146.96;43.84
39105;BME280;46464;51.154;13.812;2023-03-18T03:02:07;52305.84;;;-146.96;43.87
39105;BME280;46464;51.154;13.812;2023-03-18T03:04:33;52297.72;;;-146.96;43.64
39105;BME280;46464;51.154;13.812;2023-03-18T03:07:00;52305.84;;;-146.96;43.78
39105;BME280;46464;51.154;13.812;2023-03-18T03:09:27;52350.59;;;-146.96;43.98
39105;BME280;46464;51.154;13.812;2023-03-18T03:11:54;52338.41;;;-146.96;44.22
39105;BME280;46464;51.154;13.812;2023-03-18T03:14:20;52324.16;;;-146.96;43.96
39105;BME280;46464;51.154;13.812;2023-03-18T03:16:46;52313.97;;;-146.96;43.64
39105;BME280;46464;51.154;13.812;2023-03-18T03:19:13;52307.88;;;-146.96;44.14
39105;BME280;46464;51.154;13.812;2023-03-18T03:21:41;52305.84;;;-146.96;44.24
39105;BME280;46464;51.154;13.812;2023-03-18T03:24:07;52342.47;;;-146.96;44.24
39105;BME280;46464;51.154;13.812;2023-03-18T03:26:35;52328.22;;;-146.96;44.23
39105;BME280;46464;51.154;13.812;2023-03-18T03:29:03;52381.13;;;-146.96;44.39
39105;BME280;46464;51.154;13.812;2023-03-18T03:31:30;52328.22;;;-146.96;44.56
39105;BME280;46464;51.154;13.812;2023-03-18T03:33:57;52356.72;;;-146.96;44.46
39105;BME280;46464;51.154;13.812;2023-03-18T03:36:24;52338.41;;;-146.96;44.36
39105;BME280;46464;51.154;13.812;2023-03-18T03:38:50;52316.03;;;-146.96;44.39
39105;BME280;46464;51.154;13.812;2023-03-18T03:41:18;52340.44;;;-146.96;44.43
39105;BME280;46464;51.154;13.812;2023-03-18T03:43:44;52326.19;;;-146.96;44.28
39105;BME280;46464;51.154;13.812;2023-03-18T03:46:11;52342.47;;;-146.96;44.59
39105;BME280;46464;51.154;13.812;2023-03-18T03:48:38;52324.16;;;-146.96;44.42
39105;BME280;46464;51.154;13.812;2023-03-18T03:51:05;52342.47;;;-146.96;44.73
39105;BME280;46464;51.154;13.812;2023-03-18T03:53:32;52342.47;;;-146.96;44.84
39105;BME280;46464;51.154;13.812;2023-03-18T03:55:59;52340.44;;;-146.96;44.71
39105;BME280;46464;51.154;13.812;2023-03-18T03:58:26;52313.97;;;-146.96;44.79
39105;BME280;46464;51.154;13.812;2023-03-18T04:00:52;52350.59;;;-146.96;44.59
39105;BME280;46464;51.154;13.812;2023-03-18T04:03:19;52324.16;;;-146.96;44.87
39105;BME280;46464;51.154;13.812;2023-03-18T04:05:45;52330.25;;;-146.96;44.93
39105;BME280;46464;51.154;13.812;2023-03-18T04:08:12;52356.72;;;-146.96;45.27
39105;BME280;46464;51.154;13.812;2023-03-18T04:10:39;52360.78;;;-146.96;44.97
39105;BME280;46464;51.154;13.812;2023-03-18T04:13:05;52342.47;;;-146.96;44.99
39105;BME280;46464;51.154;13.812;2023-03-18T04:15:32;52324.16;;;-146.96;44.94
39105;BME280;46464;51.154;13.812;2023-03-18T04:17:59;52330.25;;;-146.96;44.73
39105;BME280;46464;51.154;13.812;2023-03-18T04:20:34;52342.47;;;-146.96;45.00
39105;BME280;46464;51.154;13.812;2023-03-18T04:23:00;52377.06;;;-146.96;45.16
39105;BME280;46464;51.154;13.812;2023-03-18T04:25:28;52389.28;;;-146.96;45.45
39105;BME280;46464;51.154;13.812;2023-03-18T04:27:55;52342.47;;;-146.96;45.76
39105;BME280;46464;51.154;13.812;2023-03-18T04:30:22;52364.84;;;-146.96;45.82
39105;BME280;46464;51.154;13.812;2023-03-18T04:32:50;52366.88;;;-146.96;45.74
39105;BME280;46464;51.154;13.812;2023-03-18T04:35:17;52338.41;;;-146.96;45.80
39105;BME280;46464;51.154;13.812;2023-03-18T04:37:44;52346.53;;;-146.96;45.57
39105;BME280;46464;51.154;13.812;2023-03-18T04:40:11;52370.97;;;-146.96;45.75
39105;BME280;46464;51.154;13.812;2023-03-18T04:42:38;52326.19;;;-146.96;45.96
39105;BME280;46464;51.154;13.812;2023-03-18T04:45:05;52324.16;;;-146.96;45.88
39105;BME280;46464;51.154;13.812;2023-03-18T04:47:32;52334.34;;;-146.96;46.07
39105;BME280;46464;51.154;13.812;2023-03-18T04:50:00;52370.97;;;-146.96;46.38
39105;BME280;46464;51.154;13.812;2023-03-18T04:52:29;52354.69;;;-146.96;46.16
39105;BME280;46464;51.154;13.812;2023-03-18T04:54:56;52362.81;;;-146.96;46.19
39105;BME280;46464;51.154;13.812;2023-03-18T04:57:22;52352.66;;;-146.96;46.03
39105;BME280;46464;51.154;13.812;2023-03-18T04:59:49;52358.75;;;-146.96;46.48
39105;BME280;46464;51.154;13.812;2023-03-18T05:02:16;52336.38;;;-146.96;46.36
39105;BME280;46464;51.154;13.812;2023-03-18T05:04:42;52342.47;;;-146.96;46.50
39105;BME280;46464;51.154;13.812;2023-03-18T05:07:12;52373.00;;;-146.96;46.43
39105;BME280;46464;51.154;13.812;2023-03-18T05:09:41;52354.69;;;-146.96;46.59
39105;BME280;46464;51.154;13.812;2023-03-18T05:12:14;52385.19;;;-146.96;46.67
39105;BME280;46464;51.154;13.812;2023-03-18T05:14:41;52354.69;;;-146.96;46.76
39105;BME280;46464;51.154;13.812;2023-03-18T05:17:08;52334.34;;;-146.96;46.72
39105;BME280;46464;51.154;13.812;2023-03-18T05:19:44;52322.13;;;-146.96;46.56
39105;BME280;46464;51.154;13.812;2023-03-18T05:22:13;52383.16;;;-146.96;46.64
39105;BME280;46464;51.154;13.812;2023-03-18T05:24:41;52338.41;;;-146.96;46.63
39105;BME280;46464;51.154;13.812;2023-03-18T05:27:15;52344.50;;;-146.96;46.94
39105;BME280;46464;51.154;13.812;2023-03-18T05:29:44;52305.84;;;-146.96;47.11
39105;BME280;46464;51.154;13.812;2023-03-18T05:32:11;52338.41;;;-146.96;47.04
39105;BME280;46464;51.154;13.812;2023-03-18T05:34:40;52387.22;;;-146.96;47.02
39105;BME280;46464;51.154;13.812;2023-03-18T05:37:07;52379.09;;;-146.96;47.28
39105;BME280;46464;51.154;13.812;2023-03-18T05:39:35;52368.94;;;-146.96;47.38
39105;BME280;46464;51.154;13.812;2023-03-18T05:42:02;52375.03;;;-146.96;47.35
39105;BME280;46464;51.154;13.812;2023-03-18T05:44:30;52338.41;;;-146.96;47.25
39105;BME280;46464;51.154;13.812;2023-03-18T05:46:56;52342.47;;;-146.96;47.13
39105;BME280;46464;51.154;13.812;2023-03-18T05:49:24;52368.94;;;-146.96;46.99
39105;BME280;46464;51.154;13.812;2023-03-18T05:51:50;52338.41;;;-146.96;47.22
39105;BME280;46464;51.154;13.812;2023-03-18T05:54:20;52358.75;;;-146.96;47.14
39105;BME280;46464;51.154;13.812;2023-03-18T05:56:47;52344.50;;;-146.96;47.55
39105;BME280;46464;51.154;13.812;2023-03-18T05:59:15;52407.59;;;-146.96;47.59
39105;BME280;46464;51.154;13.812;2023-03-18T06:01:41;52360.78;;;-146.96;47.76
39105;BME280;46464;51.154;13.812;2023-03-18T06:04:08;52356.72;;;-146.96;47.53
39105;BME280;46464;51.154;13.812;2023-03-18T06:06:36;52375.03;;;-146.96;47.53
39105;BME280;46464;51.154;13.812;2023-03-18T06:09:08;52350.59;;;-146.96;47.65
39105;BME280;46464;51.154;13.812;2023-03-18T06:11:36;52334.34;;;-146.96;47.47
39105;BME280;46464;51.154;13.812;2023-03-18T06:14:05;52354.69;;;-146.96;47.81
39105;BME280;46464;51.154;13.812;2023-03-18T06:16:32;52348.56;;;-146.96;47.41
39105;BME280;46464;51.154;13.812;2023-03-18T06:19:01;52383.16;;;-146.96;47.56
39105;BME280;46464;51.154;13.812;2023-03-18T06:21:27;52340.44;;;-146.96;47.57
39105;BME280;46464;51.154;13.812;2023-03-18T06:23:54;52383.16;;;-146.96;47.59
39105;BME280;46464;51.154;13.812;2023-03-18T06:26:21;52342.47;;;-146.96;47.92
39105;BME280;46464;51.154;13.812;2023-03-18T06:28:47;52348.56;;;-146.96;47.53
39105;BME280;46464;51.154;13.812;2023-03-18T06:31:14;52305.84;;;-146.96;47.71
39105;BME280;46464;51.154;13.812;2023-03-18T06:33:40;52336.38;;;-146.96;47.62
39105;BME280;46464;51.154;13.812;2023-03-18T06:36:07;52342.47;;;-146.96;47.39
39105;BME280;46464;51.154;13.812;2023-03-18T06:38:33;52303.81;;;-146.96;47.48
39105;BME280;46464;51.154;13.812;2023-03-18T06:41:00;52320.09;;;-146.96;47.66
39105;BME280;46464;51.154;13.812;2023-03-18T06:43:27;52328.22;;;-146.96;47.71
39105;BME280;46464;51.154;13.812;2023-03-18T06:45:53;52334.34;;;-146.96;47.55
39105;BME280;46464;51.154;13.812;2023-03-18T06:48:20;52373.00;;;-146.96;47.41
39105;BME280;46464;51.154;13.812;2023-03-18T06:50:46;52316.03;;;-146.96;47.21
39105;BME280;46464;51.154;13.812;2023-03-18T06:53:13;52354.69;;;-146.96;47.37
39105;BME280;46464;51.154;13.812;2023-03-18T06:55:39;52340.44;;;-146.96;47.35
39105;BME280;46464;51.154;13.812;2023-03-18T06:58:06;52364.84;;;-146.96;47.20
39105;BME280;46464;51.154;13.812;2023-03-18T07:00:33;52311.94;;;-146.96;47.17
39105;BME280;46464;51.154;13.812;2023-03-18T07:03:01;52273.28;;;-146.96;46.82
39105;BME280;46464;51.154;13.812;2023-03-18T07:05:27;52342.47;;;-146.96;47.25
39105;BME280;46464;51.154;13.812;2023-03-18T07:07:54;52307.88;;;-146.96;47.32
39105;BME280;46464;51.154;13.812;2023-03-18T07:10:26;52289.56;;;-146.96;47.05
39105;BME280;46464;51.154;13.812;2023-03-18T07:12:54;52322.13;;;-146.96;46.90
39105;BME280;46464;51.154;13.812;2023-03-18T07:15:21;52287.53;;;-146.96;47.10
39105;BME280;46464;51.154;13.812;2023-03-18T07:17:49;52273.28;;;-146.96;47.12
39105;BME280;46464;51.154;13.812;2023-03-18T07:20:17;52259.03;;;-146.96;46.31
39105;BME280;46464;51.154;13.812;2023-03-18T07:22:47;52297.72;;;-146.96;46.42
39105;BME280;46464;51.154;13.812;2023-03-18T07:25:14;52305.84;;;-146.96;45.88
39105;BME280;46464;51.154;13.812;2023-03-18T07:27:40;52291.59;;;-146.96;46.33
39105;BME280;46464;51.154;13.812;2023-03-18T07:30:08;52273.28;;;-146.96;46.62
39105;BME280;46464;51.154;13.812;2023-03-18T07:32:35;52263.13;;;-146.96;46.47
39105;BME280;46464;51.154;13.812;2023-03-18T07:35:04;52289.56;;;-146.96;46.76
39105;BME280;46464;51.154;13.812;2023-03-18T07:37:31;52301.78;;;-146.96;46.58
39105;BME280;46464;51.154;13.812;2023-03-18T07:39:58;52244.81;;;-146.96;46.39
39105;BME280;46464;51.154;13.812;2023-03-18T07:42:25;52240.75;;;-146.96;45.51
39105;BME280;46464;51.154;13.812;2023-03-18T07:44:52;52252.94;;;-146.96;44.88
39105;BME280;46464;51.154;13.812;2023-03-18T07:47:18;52234.63;;;-146.96;45.44
39105;BME280;46464;51.154;13.812;2023-03-18T07:49:46;52263.13;;;-146.96;45.42
39105;BME280;46464;51.154;13.812;2023-03-18T07:52:13;52269.22;;;-146.96;44.45
39105;BME280;46464;51.154;13.812;2023-03-18T07:54:40;52240.75;;;-146.96;45.02
39105;BME280;46464;51.154;13.812;2023-03-18T07:57:06;52204.13;;;-146.96;45.00
39105;BME280;46464;51.154;13.812;2023-03-18T07:59:33;52224.47;;;-146.96;44.67
39105;BME280;46464;51.154;13.812;2023-03-18T08:02:00;52216.31;;;-146.96;44.47
39105;BME280;46464;51.154;13.812;2023-03-18T08:04:27;52236.66;;;-146.96;43.93
39105;BME280;46464;51.154;13.812;2023-03-18T08:06:54;52212.25;;;-146.96;43.48
39105;BME280;46464;51.154;13.812;2023-03-18T08:09:20;52240.75;;;-146.96;43.38
39105;BME280;46464;51.154;13.812;2023-03-18T08:11:47;52216.31;;;-146.96;43.72
39105;BME280;46464;51.154;13.812;2023-03-18T08:14:14;52177.66;;;-146.96;44.01
39105;BME280;46464;51.154;13.812;2023-03-18T08:16:41;52212.25;;;-146.96;43.76
39105;BME280;46464;51.154;13.812;2023-03-18T08:19:07;52210.22;;;-146.96;44.04
39105;BME280;46464;51.154;13.812;2023-03-18T08:21:34;52193.94;;;-146.96;43.55
39105;BME280;46464;51.154;13.812;2023-03-18T08:24:02;52218.34;;;-146.96;44.38
39105;BME280;46464;51.154;13.812;2023-03-18T08:26:28;52200.03;;;-146.96;44.24
39105;BME280;46464;51.154;13.812;2023-03-18T08:28:58;52183.75;;;-146.96;44.13
39105;BME280;46464;51.154;13.812;2023-03-18T08:31:24;52181.72;;;-146.96;44.24
39105;BME280;46464;51.154;13.812;2023-03-18T08:33:51;52228.53;;;-146.96;43.99
39105;BME280;46464;51.154;13.812;2023-03-18T08:36:22;52191.91;;;-146.96;44.15
39105;BME280;46464;51.154;13.812;2023-03-18T08:38:49;52193.94;;;-146.96;44.03
39105;BME280;46464;51.154;13.812;2023-03-18T08:41:15;52208.19;;;-146.96;44.43
39105;BME280;46464;51.154;13.812;2023-03-18T08:43:42;52189.88;;;-146.96;44.03
39105;BME280;46464;51.154;13.812;2023-03-18T08:46:10;52171.56;;;-146.96;43.44
39105;BME280;46464;51.154;13.812;2023-03-18T08:48:37;52179.69;;;-146.96;43.78
39105;BME280;46464;51.154;13.812;2023-03-18T08:51:06;52163.41;;;-146.96;44.05
39105;BME280;46464;51.154;13.812;2023-03-18T08:53:39;52159.34;;;-146.96;44.08
39105;BME280;46464;51.154;13.812;2023-03-18T08:56:07;52189.88;;;-146.96;44.05
39105;BME280;46464;51.154;13.812;2023-03-18T08:58:38;52167.50;;;-146.96;43.98
39105;BME280;46464;51.154;13.812;2023-03-18T09:01:07;52130.88;;;-146.96;44.01
39105;BME280;46464;51.154;13.812;2023-03-18T09:03:37;52120.69;;;-146.96;43.99
39105;BME280;46464;51.154;13.812;2023-03-18T09:06:04;52116.63;;;-146.96;43.84
39105;BME280;46464;51.154;13.812;2023-03-18T09:08:31;52084.06;;;-146.96;43.75
39105;BME280;46464;51.154;13.812;2023-03-18T09:10:58;52139.00;;;-146.96;43.96
39105;BME280;46464;51.154;13.812;2023-03-18T09:13:26;52130.88;;;-146.96;42.24
39105;BME280;46464;51.154;13.812;2023-03-18T09:15:52;52112.56;;;-146.96;41.59
39105;BME280;46464;51.154;13.812;2023-03-18T09:18:20;52096.28;;;-146.96;41.59
39105;BME280;46464;51.154;13.812;2023-03-18T09:20:48;52098.31;;;-146.96;41.01
39105;BME280;46464;51.154;13.812;2023-03-18T09:23:15;52037.28;;;-146.96;40.19
39105;BME280;46464;51.154;13.812;2023-03-18T09:25:44;52104.41;;;-146.96;40.13
39105;BME280;46464;51.154;13.812;2023-03-18T09:28:12;52041.34;;;-146.96;39.30
39105;BME280;46464;51.154;13.812;2023-03-18T09:30:39;52071.84;;;-146.96;39.47
39105;BME280;46464;51.154;13.812;2023-03-18T09:33:07;52067.78;;;-146.96;39.38
39105;BME280;46464;51.154;13.812;2023-03-18T09:35:34;52069.81;;;-146.96;39.92
39105;BME280;46464;51.154;13.812;2023-03-18T09:38:02;52051.50;;;-146.96;40.15
39105;BME280;46464;51.154;13.812;2023-03-18T09:40:34;52029.13;;;-146.96;39.86
39105;BME280;46464;51.154;13.812;2023-03-18T09:49:14;51986.41;;;-146.96;39.45
39105;BME280;46464;51.154;13.812;2023-03-18T09:51:52;52006.75;;;-146.96;38.17
39105;BME280;46464;51.154;13.812;2023-03-18T09:54:32;51984.38;;;-146.96;38.25
39105;BME280;46464;51.154;13.812;2023-03-18T09:57:02;52051.50;;;-146.96;39.06
39105;BME280;46464;51.154;13.812;2023-03-18T09:59:53;52027.09;;;-146.96;39.79
39105;BME280;46464;51.154;13.812;2023-03-18T10:02:45;52035.25;;;-146.96;39.76
39105;BME280;46464;51.154;13.812;2023-03-18T10:05:17;52014.88;;;-146.96;39.26
39105;BME280;46464;51.154;13.812;2023-03-18T10:07:49;52021.00;;;-146.96;39.53
39105;BME280;46464;51.154;13.812;2023-03-18T10:10:25;52010.81;;;-146.96;39.25
39105;BME280;46464;51.154;13.812;2023-03-18T10:15:52;51998.63;;;-146.96;40.64
39105;BME280;46464;51.154;13.812;2023-03-18T10:26:26;51959.97;;;-146.96;38.20
39105;BME280;46464;51.154;13.812;2023-03-18T10:34:38;51927.41;;;-146.96;39.61
39105;BME280;46464;51.154;13.812;2023-03-18T10:39:42;51986.41;;;-146.96;39.43
39105;BME280;46464;51.154;13.812;2023-03-18T10:42:22;51931.47;;;-146.96;38.84
39105;BME280;46464;51.154;13.812;2023-03-18T10:44:50;51957.91;;;-146.96;39.56
39105;BME280;46464;51.154;13.812;2023-03-18T10:47:25;51974.19;;;-146.96;40.56
39105;BME280;46464;51.154;13.812;2023-03-18T10:50:20;51966.06;;;-146.96;40.13
39105;BME280;46464;51.154;13.812;2023-03-18T10:53:24;51951.81;;;-146.96;40.42
39105;BME280;46464;51.154;13.812;2023-03-18T10:56:08;51957.91;;;-146.96;39.88
39105;BME280;46464;51.154;13.812;2023-03-18T10:58:39;51990.47;;;-146.96;40.73
39105;BME280;46464;51.154;13.812;2023-03-18T11:01:10;51968.09;;;-146.96;40.83
39105;BME280;46464;51.154;13.812;2023-03-18T11:03:47;51925.38;;;-146.96;40.48
39105;BME280;46464;51.154;13.812;2023-03-18T11:06:19;51972.16;;;-146.96;40.69
39105;BME280;46464;51.154;13.812;2023-03-18T11:08:47;51957.91;;;-146.96;40.57
39105;BME280;46464;51.154;13.812;2023-03-18T11:11:28;51945.72;;;-146.96;39.21
39105;BME280;46464;51.154;13.812;2023-03-18T11:14:00;51949.78;;;-146.96;40.22
39105;BME280;46464;51.154;13.812;2023-03-18T11:19:01;51980.31;;;-146.96;39.01
39105;BME280;46464;51.154;13.812;2023-03-18T11:21:31;51923.34;;;-146.96;38.65
39105;BME280;46464;51.154;13.812;2023-03-18T11:24:00;51964.03;;;-146.96;38.90
39105;BME280;46464;51.154;13.812;2023-03-18T11:27:01;51972.16;;;-146.96;39.12
39105;BME280;46464;51.154;13.812;2023-03-18T11:29:32;51947.75;;;-146.96;39.79
39105;BME280;46464;51.154;13.812;2023-03-18T11:32:00;51982.34;;;-146.96;39.72
39105;BME280;46464;51.154;13.812;2023-03-18T11:34:29;51959.97;;;-146.96;40.13
39105;BME280;46464;51.154;13.812;2023-03-18T11:37:05;51962.00;;;-146.96;40.96
39105;BME280;46464;51.154;13.812;2023-03-18T11:39:35;51939.63;;;-146.96;40.15
39105;BME280;46464;51.154;13.812;2023-03-18T11:42:16;51945.72;;;-146.96;39.84
39105;BME280;46464;51.154;13.812;2023-03-18T11:44:43;51939.63;;;-146.96;39.71
39105;BME280;46464;51.154;13.812;2023-03-18T11:47:13;51931.47;;;-146.96;39.21
39105;BME280;46464;51.154;13.812;2023-03-18T11:49:44;51921.31;;;-146.96;39.04
39105;BME280;46464;51.154;13.812;2023-03-18T11:55:00;51957.91;;;-146.96;39.10
39105;BME280;46464;51.154;13.812;2023-03-18T12:00:30;51921.31;;;-146.96;38.09
39105;BME280;46464;51.154;13.812;2023-03-18T12:03:26;51935.53;;;-146.96;38.69
39105;BME280;46464;51.154;13.812;2023-03-18T12:06:25;51929.44;;;-146.96;38.49
39105;BME280;46464;51.154;13.812;2023-03-18T12:14:21;51909.09;;;-146.96;38.88
39105;BME280;46464;51.154;13.812;2023-03-18T12:17:01;51896.88;;;-146.96;38.24
39105;BME280;46464;51.154;13.812;2023-03-18T12:22:32;51900.97;;;-146.96;39.03
39105;BME280;46464;51.154;13.812;2023-03-18T12:31:11;51953.84;;;-146.96;38.73
39105;BME280;46464;51.154;13.812;2023-03-18T12:33:58;51931.47;;;-146.96;39.12
39105;BME280;46464;51.154;13.812;2023-03-18T12:39:26;51931.47;;;-146.96;38.29
39105;BME280;46464;51.154;13.812;2023-03-18T12:42:05;51962.00;;;-146.96;38.02
39105;BME280;46464;51.154;13.812;2023-03-18T12:44:58;51927.41;;;-146.96;39.59
39105;BME280;46464;51.154;13.812;2023-03-18T12:47:53;51925.38;;;-146.96;38.91
39105;BME280;46464;51.154;13.812;2023-03-18T12:50:35;51941.66;;;-146.96;38.81
39105;BME280;46464;51.154;13.812;2023-03-18T12:53:12;51935.53;;;-146.96;39.31
39105;BME280;46464;51.154;13.812;2023-03-18T12:55:48;51915.19;;;-146.96;39.44
39105;BME280;46464;51.154;13.812;2023-03-18T12:58:21;51953.84;;;-146.96;39.46
39105;BME280;46464;51.154;13.812;2023-03-18T13:03:27;51974.19;;;-146.96;40.47
39105;BME280;46464;51.154;13.812;2023-03-18T13:11:20;51929.44;;;-146.96;39.37
39105;BME280;46464;51.154;13.812;2023-03-18T13:13:55;51939.63;;;-146.96;38.85
39105;BME280;46464;51.154;13.812;2023-03-18T13:16:27;51941.66;;;-146.96;38.65
39105;BME280;46464;51.154;13.812;2023-03-18T13:18:56;51915.19;;;-146.96;39.19
39105;BME280;46464;51.154;13.812;2023-03-18T13:21:26;51862.31;;;-146.96;39.93
39105;BME280;46464;51.154;13.812;2023-03-18T13:23:58;51900.97;;;-146.96;40.48
39105;BME280;46464;51.154;13.812;2023-03-18T13:27:03;51911.13;;;-146.96;39.73
39105;BME280;46464;51.154;13.812;2023-03-18T13:29:59;51890.78;;;-146.96;40.25
39105;BME280;46464;51.154;13.812;2023-03-18T13:44:03;51888.75;;;-146.96;40.05
39105;BME280;46464;51.154;13.812;2023-03-18T13:46:32;51882.66;;;-146.96;39.54
39105;BME280;46464;51.154;13.812;2023-03-18T13:49:01;51876.53;;;-146.96;39.20
39105;BME280;46464;51.154;13.812;2023-03-18T13:53:57;51900.97;;;-146.96;39.02
39105;BME280;46464;51.154;13.812;2023-03-18T14:02:31;51862.31;;;-146.96;38.57
39105;BME280;46464;51.154;13.812;2023-03-18T14:05:00;51860.25;;;-146.96;38.46
39105;BME280;46464;51.154;13.812;2023-03-18T14:07:27;51870.44;;;-146.96;38.97